»·PEaware :: N48JF KTOA-0O2

N48JF :: KTOA-0O2

FLIGHT INFORMATION

Flight Status: Arrived
Operator: Privately registered:
United States
More flights under this callsign
Pilot: Mark P. (13279)
Aircraft: Unknown
(EA55)
More flights by this aircraft type
Origin: KTOA Zamperini
United States
Destination: 0O2 Baker
United States
More flights between these airports :: More routes between these airports
Route: +LIMBO V8 POM SLI DAG
File this flight plan on PilotEdge
Remarks:
Altitude:
(Current/Filed)
17,500ft
Speed:
(Current/Filed)
320kts
Departed: 15-Dec-16 10:19 AM
Arrived: 15-Dec-16 10:59 AM
Distance/Time
Traveled:
143nm/0:40
Distance/Time
To Go:
Arrived

Flight Plot

Page will automatically refresh every two minutes.

Flight plan parsing failed; only flown route is shown


Map Options




Map Legend


Flown Route
Filed Route
Departure Airport
Arrival Airport
Navaid (VOR, NDB)
Fix

Horizontal Profiles

Position Reports

Time Latitude Longitude Heading Altitude Ground
Speed
15-Dec-16 09:44 33.797720 -118.332570 270 107ft 0kts
15-Dec-16 09:45 33.797720 -118.332570 270 107ft 0kts
15-Dec-16 09:46 33.797720 -118.332570 270 107ft 0kts
15-Dec-16 09:47 33.797720 -118.332570 270 107ft 0kts
15-Dec-16 09:48 33.797720 -118.332570 270 107ft 0kts
15-Dec-16 09:49 33.797720 -118.332570 270 107ft 0kts
15-Dec-16 09:50 33.797720 -118.332570 270 107ft 0kts
15-Dec-16 09:51 33.797720 -118.332570 270 107ft 0kts
15-Dec-16 09:52 33.797720 -118.332570 270 107ft 0kts
15-Dec-16 09:53 33.797720 -118.332570 270 107ft 0kts
15-Dec-16 09:54 33.797720 -118.332570 270 107ft 0kts
15-Dec-16 09:55 33.797720 -118.332570 270 107ft 0kts
15-Dec-16 09:56 33.797720 -118.332570 270 107ft 0kts
15-Dec-16 09:57 33.797720 -118.332570 270 107ft 0kts
15-Dec-16 09:58 33.797720 -118.332570 270 107ft 0kts
15-Dec-16 09:59 33.797720 -118.332570 270 107ft 0kts
15-Dec-16 10:00 33.797720 -118.332570 270 107ft 0kts
15-Dec-16 10:01 33.797720 -118.332570 270 107ft 0kts
15-Dec-16 10:02 33.797720 -118.332570 270 107ft 0kts
15-Dec-16 10:03 33.797720 -118.332570 270 107ft 0kts
15-Dec-16 10:04 33.797720 -118.332570 270 107ft 0kts
15-Dec-16 10:05 33.797720 -118.332570 270 107ft 0kts
15-Dec-16 10:06 33.797720 -118.332570 270 107ft 0kts
15-Dec-16 10:07 33.797720 -118.332570 270 107ft 0kts
15-Dec-16 10:08 33.797794 -118.334185 320 107ft 3kts
15-Dec-16 10:09 33.798292 -118.334047 39 107ft 0kts
15-Dec-16 10:10 33.799035 -118.333353 36 107ft 0kts
15-Dec-16 10:11 33.800835 -118.334715 308 107ft 54kts
15-Dec-16 10:12 33.830363 -118.380612 307 497ft 297kts
15-Dec-16 10:13 33.867843 -118.439848 308 1346ft 202kts
15-Dec-16 10:14 33.857300 -118.496342 222 2326ft 202kts
15-Dec-16 10:15 33.814855 -118.541598 222 3329ft 205kts
15-Dec-16 10:16 33.766314 -118.573232 152 4340ft 217kts
15-Dec-16 10:17 33.731015 -118.514490 122 5356ft 221kts
15-Dec-16 10:18 33.697158 -118.450193 122 8811ft 239kts
15-Dec-16 10:19 33.659019 -118.371542 122 11252ft 303kts
15-Dec-16 10:20 33.618804 -118.281575 121 14136ft 316kts
15-Dec-16 10:21 33.633361 -118.188905 27 15001ft 333kts
15-Dec-16 10:22 33.704912 -118.125442 35 15000ft 335kts
15-Dec-16 10:23 33.771496 -118.065164 35 16730ft 347kts
15-Dec-16 10:24 33.810685 -117.962931 70 18478ft 361kts
15-Dec-16 10:25 33.846489 -117.872902 40 19708ft 370kts
15-Dec-16 10:26 33.938262 -117.853401 341 20982ft 352kts
15-Dec-16 10:27 34.030319 -117.830724 36 22051ft 387kts
15-Dec-16 10:28 34.102248 -117.739482 56 22923ft 395kts
15-Dec-16 10:29 34.160162 -117.630911 54 22998ft 397kts
15-Dec-16 10:30 34.223619 -117.523885 54 23158ft 410kts
15-Dec-16 10:31 34.286963 -117.409045 57 23656ft 411kts
15-Dec-16 10:32 34.344736 -117.299961 57 25763ft 384kts
15-Dec-16 10:33 34.409550 -117.197768 38 26960ft 383kts
15-Dec-16 10:34 34.494314 -117.121712 31 26998ft 380kts
15-Dec-16 10:35 34.583301 -117.054590 26 26999ft 377kts
15-Dec-16 10:36 34.668884 -116.981272 47 27004ft 383kts
15-Dec-16 10:37 34.739057 -116.884020 47 27002ft 383kts
15-Dec-16 10:38 34.810116 -116.786605 46 27004ft 383kts
15-Dec-16 10:39 34.880801 -116.689870 46 26419ft 383kts
15-Dec-16 10:40 34.952393 -116.591763 47 24485ft 408kts
15-Dec-16 10:41 35.024098 -116.484690 50 24008ft 405kts
15-Dec-16 10:42 35.106508 -116.401109 34 20790ft 376kts
15-Dec-16 10:43 35.170722 -116.312413 50 15084ft 337kts
15-Dec-16 10:44 35.229703 -116.229761 46 12989ft 315kts
15-Dec-16 10:45 35.281414 -116.162436 44 10379ft 248kts
15-Dec-16 10:46 35.326427 -116.105391 43 7690ft 225kts
15-Dec-16 10:47 35.309171 -116.056211 185 4881ft 218kts
15-Dec-16 10:48 35.253046 -116.049771 174 2749ft 197kts
15-Dec-16 10:49 35.251185 -116.073374 342 1357ft 169kts
15-Dec-16 10:50 35.284445 -116.080740 343 926ft 85kts
15-Dec-16 10:51 35.287172 -116.081142 244 925ft 0kts
15-Dec-16 10:52 35.287172 -116.081142 244 925ft 0kts
15-Dec-16 10:53 35.287172 -116.081142 244 925ft 0kts
15-Dec-16 10:54 35.287172 -116.081142 244 925ft 0kts
15-Dec-16 10:55 35.287172 -116.081142 244 925ft 0kts
15-Dec-16 10:56 35.287172 -116.081142 244 925ft 0kts
15-Dec-16 10:57 35.287172 -116.081142 244 925ft 0kts
15-Dec-16 10:58 35.287172 -116.081142 244 925ft 0kts
15-Dec-16 10:59 35.285107 -116.080948 162 925ft 19kts
15-Dec-16 11:00 35.282152 -116.079961 25 928ft 0kts
15-Dec-16 11:01 35.282265 -116.079952 344 928ft 0kts

Navigation Log

Ident Type
Flight plan parsing failed, navigation log unavailable